Time;durP1;ratioP1;P1;durP2;ratioP2;P2;SDS_P1;SDS_P2;PMS_P1;PMS_P2;Temp;Humidity;BMP_temperature;BMP_pressure;BME280_temperature;BME280_humidity;BME280_pressure;Samples;Min_cycle;Max_cycle;Signal;HPM_P1;HPM_P2
2023/07/03 00:02:00;;;;;;;20.80;14.17;;;16.80;17.40;;;;;;5044966;28;20474;-69
2023/07/03 00:04:27;;;;;;;20.50;13.80;;;16.80;17.30;;;;;;5045399;28;20833;-69
2023/07/03 00:06:54;;;;;;;23.20;15.60;;;16.80;17.40;;;;;;5047675;28;20462;-69
2023/07/03 00:09:21;;;;;;;18.97;13.47;;;16.70;17.70;;;;;;5046192;28;20461;-68
2023/07/03 00:11:47;;;;;;;22.43;14.13;;;16.70;17.90;;;;;;5047609;28;20462;-68
2023/07/03 00:14:14;;;;;;;20.37;13.20;;;16.60;18.30;;;;;;5047978;28;20478;-68
2023/07/03 00:16:42;;;;;;;22.07;14.07;;;16.60;18.50;;;;;;5045048;28;20858;-69
2023/07/03 00:19:09;;;;;;;21.30;14.50;;;16.50;18.70;;;;;;5048769;28;20458;-69
2023/07/03 00:21:43;;;;;;;24.17;14.87;;;16.50;19.00;;;;;;5047362;28;20466;-69
2023/07/03 00:24:10;;;;;;;23.10;14.73;;;16.40;19.00;;;;;;5047604;28;20855;-69
2023/07/03 00:26:37;;;;;;;22.37;14.20;;;16.40;19.10;;;;;;5047239;28;20465;-68
2023/07/03 00:29:04;;;;;;;22.50;14.57;;;16.40;19.10;;;;;;5049112;28;20475;-68
2023/07/03 00:31:31;;;;;;;23.77;15.70;;;16.40;19.10;;;;;;5049712;28;20482;-69
2023/07/03 00:33:59;;;;;;;22.80;15.20;;;16.40;19.10;;;;;;5048275;28;20473;-69
2023/07/03 00:36:26;;;;;;;22.30;13.90;;;16.30;19.40;;;;;;5049784;28;20961;-68
2023/07/03 00:38:57;;;;;;;24.90;15.00;;;16.30;19.40;;;;;;5051481;28;20515;-69
2023/07/03 00:41:24;;;;;;;23.47;14.90;;;16.30;19.70;;;;;;5049006;28;20485;-69
2023/07/03 00:43:51;;;;;;;20.53;14.20;;;16.30;19.60;;;;;;5047706;28;20490;-68
2023/07/03 00:46:18;;;;;;;23.73;15.23;;;16.30;19.60;;;;;;5049967;28;20494;-68
2023/07/03 00:48:46;;;;;;;24.57;14.40;;;16.30;19.70;;;;;;5048552;28;20854;-68
2023/07/03 00:51:16;;;;;;;21.77;13.60;;;16.40;19.50;;;;;;5048770;28;20454;-69
2023/07/03 00:53:43;;;;;;;23.40;15.43;;;16.40;19.50;;;;;;5042090;28;20488;-69
2023/07/03 00:56:11;;;;;;;22.37;13.80;;;16.40;19.50;;;;;;5049085;28;20469;-69
2023/07/03 00:58:38;;;;;;;24.53;15.10;;;16.40;19.60;;;;;;5045437;28;20476;-69
2023/07/03 01:01:17;;;;;;;23.40;13.97;;;16.40;19.80;;;;;;5045577;28;20943;-69
2023/07/03 01:03:48;;;;;;;21.37;14.17;;;16.40;20.10;;;;;;5045816;28;20486;-69
2023/07/03 01:06:20;;;;;;;23.43;15.07;;;16.50;20.00;;;;;;5046571;28;20458;-69
2023/07/03 01:08:50;;;;;;;21.90;15.83;;;16.40;20.00;;;;;;5044890;28;20466;-69
2023/07/03 01:11:18;;;;;;;21.90;14.40;;;16.50;20.00;;;;;;5046372;28;20462;-69
2023/07/03 01:13:47;;;;;;;20.97;13.20;;;16.50;20.00;;;;;;5045773;28;20501;-69
2023/07/03 01:16:14;;;;;;;24.70;13.93;;;16.50;20.00;;;;;;5043530;28;20454;-69
2023/07/03 01:18:42;;;;;;;21.33;13.50;;;16.50;19.80;;;;;;5045434;28;20466;-69
2023/07/03 01:21:16;;;;;;;24.10;14.00;;;16.60;19.70;;;;;;5046986;28;20461;-69
2023/07/03 01:23:51;;;;;;;18.80;13.03;;;16.60;19.80;;;;;;5046657;28;20474;-68
2023/07/03 01:26:21;;;;;;;19.90;14.10;;;16.60;19.90;;;;;;5043585;28;20974;-68
2023/07/03 01:28:52;;;;;;;24.13;13.60;;;16.60;20.30;;;;;;5047256;28;20470;-69
2023/07/03 01:31:20;;;;;;;23.67;14.67;;;16.60;20.40;;;;;;5046183;28;20469;-69
2023/07/03 01:33:48;;;;;;;22.70;14.17;;;16.60;20.40;;;;;;5046308;28;20493;-69
2023/07/03 01:36:17;;;;;;;23.10;13.90;;;16.60;20.50;;;;;;5048468;28;20466;-69
2023/07/03 01:38:45;;;;;;;22.37;13.53;;;16.60;20.50;;;;;;5047937;28;20817;-69
2023/07/03 01:41:13;;;;;;;25.37;15.03;;;16.60;20.20;;;;;;5047716;28;20549;-69
2023/07/03 01:43:42;;;;;;;24.37;14.80;;;16.70;20.00;;;;;;5046370;28;20477;-68
2023/07/03 01:46:10;;;;;;;22.67;14.10;;;16.70;19.70;;;;;;5040792;28;20484;-69
2023/07/03 01:48:37;;;;;;;23.27;13.20;;;16.70;19.60;;;;;;5045517;28;20474;-69
2023/07/03 01:51:07;;;;;;;23.03;13.90;;;16.80;19.70;;;;;;5046262;28;20469;-68
2023/07/03 01:53:50;;;;;;;19.53;13.17;;;16.80;19.60;;;;;;5048105;28;20482;-69
2023/07/03 01:56:33;;;;;;;18.93;13.00;;;16.80;19.50;;;;;;5043650;28;20465;-69
2023/07/03 01:59:07;;;;;;;25.83;15.27;;;16.80;19.30;;;;;;5044194;28;20465;-69
2023/07/03 02:01:42;;;;;;;22.90;14.03;;;16.80;19.20;;;;;;5042847;28;20469;-69
2023/07/03 02:04:15;;;;;;;21.80;14.57;;;16.80;19.10;;;;;;5043456;28;20583;-69
2023/07/03 02:06:45;;;;;;;24.40;15.00;;;16.80;19.00;;;;;;5045411;28;20473;-69
2023/07/03 02:09:12;;;;;;;25.30;13.83;;;16.80;18.90;;;;;;5047735;28;20469;-69
2023/07/03 02:11:39;;;;;;;21.60;13.33;;;16.80;19.10;;;;;;5043458;28;20947;-69
2023/07/03 02:14:08;;;;;;;26.37;14.60;;;16.80;19.30;;;;;;5044117;28;20481;-69
2023/07/03 02:16:35;;;;;;;24.40;14.53;;;16.80;19.30;;;;;;5043809;28;20458;-69
2023/07/03 02:19:02;;;;;;;21.37;14.67;;;16.90;19.30;;;;;;5044530;28;20473;-69
2023/07/03 02:21:28;;;;;;;20.20;13.67;;;16.90;19.20;;;;;;5045346;28;20489;-69
2023/07/03 02:23:55;;;;;;;26.73;15.80;;;16.90;19.20;;;;;;5043864;28;20578;-69
2023/07/03 02:26:22;;;;;;;22.23;15.50;;;16.90;19.20;;;;;;5046948;28;20474;-68
2023/07/03 02:28:49;;;;;;;24.60;14.43;;;17.00;19.10;;;;;;5048270;28;20466;-69
2023/07/03 02:31:17;;;;;;;24.67;13.87;;;17.00;19.10;;;;;;5042437;28;20474;-69
2023/07/03 02:33:43;;;;;;;23.20;14.10;;;17.00;19.10;;;;;;5041077;28;20478;-69
2023/07/03 02:36:10;;;;;;;22.63;14.40;;;17.00;19.30;;;;;;5045769;28;20461;-69
2023/07/03 02:38:37;;;;;;;26.83;15.33;;;17.10;18.70;;;;;;5043125;28;20469;-69
2023/07/03 02:41:04;;;;;;;19.90;13.10;;;17.10;18.80;;;;;;5042557;28;20484;-69
2023/07/03 02:43:31;;;;;;;25.17;15.53;;;17.20;18.70;;;;;;5045947;28;20862;-69
2023/07/03 02:46:02;;;;;;;20.93;15.20;;;17.20;18.50;;;;;;5042001;28;20501;-69
2023/07/03 02:48:31;;;;;;;25.33;14.20;;;17.20;18.60;;;;;;5044186;28;20462;-69
2023/07/03 02:50:58;;;;;;;23.00;14.37;;;17.20;18.60;;;;;;5042435;28;20477;-69
2023/07/03 02:53:24;;;;;;;23.00;14.37;;;17.20;18.50;;;;;;5045721;28;20503;-68
2023/07/03 02:55:51;;;;;;;22.30;13.73;;;17.20;18.60;;;;;;5046707;28;20474;-68
2023/07/03 02:58:18;;;;;;;24.17;15.03;;;17.20;18.70;;;;;;5041901;28;20485;-68
2023/07/03 03:00:46;;;;;;;22.83;13.43;;;17.20;19.00;;;;;;5046183;28;20478;-69
2023/07/03 03:03:13;;;;;;;25.20;14.37;;;17.20;19.40;;;;;;5044513;28;20478;-69
2023/07/03 03:05:41;;;;;;;27.27;15.17;;;17.10;19.90;;;;;;5042706;28;20521;-69
2023/07/03 03:08:08;;;;;;;23.87;14.77;;;17.10;20.10;;;;;;5045583;28;20469;-69
2023/07/03 03:10:35;;;;;;;24.83;15.80;;;17.10;20.80;;;;;;5044918;28;20486;-69
2023/07/03 03:13:02;;;;;;;20.90;14.10;;;17.10;21.00;;;;;;5047442;28;20485;-69
2023/07/03 03:15:30;;;;;;;20.77;14.23;;;17.00;21.20;;;;;;5047745;28;20465;-69
2023/07/03 03:17:56;;;;;;;25.70;15.97;;;17.00;21.40;;;;;;5043171;28;20489;-69
2023/07/03 03:20:23;;;;;;;22.80;14.40;;;17.00;21.30;;;;;;5047434;28;20858;-69
2023/07/03 03:22:51;;;;;;;30.00;15.33;;;17.00;20.90;;;;;;5043851;28;20813;-69
2023/07/03 03:25:18;;;;;;;23.80;15.17;;;17.00;20.70;;;;;;5046665;28;20481;-69
2023/07/03 03:27:45;;;;;;;24.80;14.33;;;17.10;20.50;;;;;;5038467;28;20950;-69
2023/07/03 03:30:12;;;;;;;22.33;15.00;;;17.00;20.10;;;;;;5044380;28;20485;-69
2023/07/03 03:32:39;;;;;;;22.07;15.00;;;17.00;19.90;;;;;;5046127;28;20462;-69
2023/07/03 03:35:07;;;;;;;22.23;15.60;;;17.10;19.80;;;;;;5044800;28;20461;-68
2023/07/03 03:37:34;;;;;;;25.30;15.47;;;17.10;19.70;;;;;;5049504;28;21256;-67
2023/07/03 03:40:02;;;;;;;20.47;14.00;;;17.10;19.70;;;;;;5050652;28;20461;-66
2023/07/03 03:42:29;;;;;;;24.13;16.00;;;17.10;20.00;;;;;;5051078;28;20454;-66
2023/07/03 03:44:56;;;;;;;23.00;13.93;;;17.10;19.80;;;;;;5043459;28;20481;-71
2023/07/03 03:47:23;;;;;;;24.30;14.20;;;17.20;19.60;;;;;;5048873;28;20473;-69
2023/07/03 03:49:49;;;;;;;34.90;14.20;;;17.20;19.40;;;;;;5051129;28;20457;-69
2023/07/03 03:52:16;;;;;;;22.07;13.90;;;17.20;19.20;;;;;;5046714;28;20461;-67
2023/07/03 03:54:43;;;;;;;21.87;14.20;;;17.20;19.30;;;;;;5047806;28;20474;-67
2023/07/03 03:57:12;;;;;;;23.13;14.73;;;17.30;18.90;;;;;;5047415;28;20464;-68
2023/07/03 03:59:39;;;;;;;24.10;15.30;;;17.30;19.00;;;;;;5048732;28;20519;-68
2023/07/03 04:02:06;;;;;;;27.10;15.43;;;17.30;18.80;;;;;;5047593;28;20851;-68
2023/07/03 04:04:33;;;;;;;20.17;13.17;;;17.30;18.70;;;;;;5049569;28;20484;-68
2023/07/03 04:07:01;;;;;;;20.17;12.47;;;17.40;18.50;;;;;;5045928;28;20499;-68
2023/07/03 04:09:28;;;;;;;27.40;16.33;;;17.40;18.40;;;;;;5047594;28;20465;-71
2023/07/03 04:11:55;;;;;;;21.63;13.70;;;17.40;18.40;;;;;;5046803;28;20469;-71
2023/07/03 04:14:23;;;;;;;23.17;14.77;;;17.50;18.70;;;;;;5040509;28;20486;-73
2023/07/03 04:16:50;;;;;;;21.13;13.80;;;17.50;18.70;;;;;;5045828;28;20515;-74
2023/07/03 04:19:18;;;;;;;22.20;14.97;;;17.50;18.70;;;;;;5044529;28;20466;-74
2023/07/03 04:21:45;;;;;;;21.00;13.93;;;17.50;18.70;;;;;;5044878;28;20470;-73
2023/07/03 04:24:12;;;;;;;21.67;13.10;;;17.50;18.60;;;;;;5046865;28;20501;-74
2023/07/03 04:26:40;;;;;;;24.43;15.00;;;17.50;18.50;;;;;;5049303;28;20486;-75
2023/07/03 04:29:06;;;;;;;22.10;13.47;;;17.50;18.40;;;;;;5047240;28;20465;-75
2023/07/03 04:31:35;;;;;;;23.20;13.63;;;17.50;18.20;;;;;;5046502;28;21002;-73
2023/07/03 04:34:02;;;;;;;21.53;13.47;;;17.60;18.00;;;;;;5046720;28;21017;-74
2023/07/03 04:36:29;;;;;;;20.90;13.83;;;17.60;17.90;;;;;;5049670;28;20466;-74
2023/07/03 04:38:57;;;;;;;22.87;12.97;;;17.60;17.70;;;;;;5050058;28;20485;-74
2023/07/03 04:41:24;;;;;;;22.40;14.33;;;17.70;17.70;;;;;;5044399;28;20462;-73
2023/07/03 04:43:51;;;;;;;23.77;13.87;;;17.70;17.50;;;;;;5045269;28;20573;-73
2023/07/03 04:46:25;;;;;;;22.20;13.27;;;17.70;17.50;;;;;;5043187;28;20493;-75
2023/07/03 04:48:59;;;;;;;20.43;12.97;;;17.70;17.40;;;;;;5041928;28;20561;-74
2023/07/03 04:51:26;;;;;;;23.97;13.80;;;17.70;17.40;;;;;;5043825;28;20536;-74
2023/07/03 04:53:52;;;;;;;19.20;13.90;;;17.80;17.20;;;;;;5045569;28;20485;-73
2023/07/03 04:56:19;;;;;;;19.80;13.70;;;17.80;16.90;;;;;;5045178;28;20536;-73
2023/07/03 04:58:47;;;;;;;20.20;13.23;;;17.80;16.90;;;;;;5045208;28;20462;-73
2023/07/03 05:01:14;;;;;;;24.40;15.03;;;17.80;17.00;;;;;;5047506;28;20473;-73
2023/07/03 05:03:41;;;;;;;22.80;14.10;;;17.90;17.10;;;;;;5044354;28;20994;-72
2023/07/03 05:06:10;;;;;;;20.10;13.00;;;17.90;17.20;;;;;;5045525;28;20483;-72
2023/07/03 05:08:37;;;;;;;23.47;14.60;;;17.90;17.00;;;;;;5045194;28;20468;-72
2023/07/03 05:11:04;;;;;;;20.33;12.57;;;17.90;16.90;;;;;;5047338;28;20560;-72
2023/07/03 05:13:30;;;;;;;20.17;13.47;;;18.00;16.80;;;;;;5046738;28;20501;-72
2023/07/03 05:15:57;;;;;;;23.20;13.97;;;18.00;16.80;;;;;;5043994;28;20461;-72
2023/07/03 05:18:24;;;;;;;20.03;12.43;;;18.00;16.70;;;;;;5043069;28;20818;-72
2023/07/03 05:20:51;;;;;;;22.23;13.23;;;18.10;16.70;;;;;;5040704;28;20477;-73
2023/07/03 05:23:19;;;;;;;29.33;15.87;;;18.10;16.80;;;;;;5044252;28;20486;-72
2023/07/03 05:25:47;;;;;;;22.27;12.70;;;18.20;17.00;;;;;;5046241;28;20497;-72
2023/07/03 05:28:14;;;;;;;28.17;15.50;;;18.20;17.60;;;;;;5045312;28;20465;-72
2023/07/03 05:30:41;;;;;;;20.80;14.80;;;18.20;17.80;;;;;;5044330;28;20490;-72
2023/07/03 05:33:10;;;;;;;24.30;14.30;;;18.20;18.10;;;;;;5045658;28;20486;-73
2023/07/03 05:35:37;;;;;;;26.43;14.10;;;18.30;18.20;;;;;;5045556;28;20559;-72
2023/07/03 05:38:04;;;;;;;26.83;13.50;;;18.30;18.30;;;;;;5045296;28;20469;-70
2023/07/03 05:40:32;;;;;;;21.17;14.00;;;18.30;18.50;;;;;;5045869;28;20462;-71
2023/07/03 05:42:59;;;;;;;20.93;14.10;;;18.40;18.70;;;;;;5038685;28;20489;-73
2023/07/03 05:45:25;;;;;;;21.50;14.17;;;18.40;18.80;;;;;;5047354;28;20492;-74
2023/07/03 05:47:52;;;;;;;23.73;15.83;;;18.50;18.80;;;;;;5039726;28;20469;-73
2023/07/03 05:50:19;;;;;;;22.13;13.30;;;18.50;18.70;;;;;;5044752;28;20532;-73
2023/07/03 05:52:46;;;;;;;23.47;13.53;;;18.60;18.70;;;;;;5045056;28;20489;-71
2023/07/03 05:55:13;;;;;;;21.10;13.60;;;18.70;18.90;;;;;;5045060;28;20661;-72
2023/07/03 05:57:41;;;;;;;23.30;14.50;;;18.70;18.60;;;;;;5040913;28;20458;-71
2023/07/03 06:00:13;;;;;;;22.40;13.53;;;18.80;18.40;;;;;;5043459;28;20474;-74
2023/07/03 06:02:40;;;;;;;22.60;14.63;;;19.00;18.10;;;;;;5044188;28;20470;-72
2023/07/03 06:05:08;;;;;;;22.07;13.10;;;19.10;17.60;;;;;;5038072;28;20459;-72
2023/07/03 06:07:34;;;;;;;20.50;12.87;;;19.20;17.50;;;;;;5045810;28;20485;-73
2023/07/03 06:10:01;;;;;;;19.57;12.77;;;19.30;17.10;;;;;;5045100;28;20831;-72
2023/07/03 06:12:29;;;;;;;20.70;13.10;;;19.40;16.80;;;;;;5042299;28;20469;-70
2023/07/03 06:14:57;;;;;;;21.20;14.33;;;19.70;16.30;;;;;;5045116;28;20505;-75
2023/07/03 06:17:24;;;;;;;18.40;12.70;;;19.80;15.70;;;;;;5044237;28;20963;-75
2023/07/03 06:19:51;;;;;;;23.13;13.13;;;19.90;15.40;;;;;;5043998;28;20470;-72
2023/07/03 06:22:18;;;;;;;22.80;13.00;;;20.00;15.20;;;;;;5043197;28;20472;-73
2023/07/03 06:24:44;;;;;;;20.23;13.33;;;20.10;15.20;;;;;;5044373;28;20478;-74
2023/07/03 06:27:12;;;;;;;20.27;12.03;;;20.20;14.70;;;;;;5046981;28;20481;-74
2023/07/03 06:29:38;;;;;;;22.90;12.90;;;20.50;14.70;;;;;;5042779;28;20469;-72
2023/07/03 06:32:09;;;;;;;25.07;14.00;;;20.80;13.70;;;;;;5041974;28;21282;-72
2023/07/03 06:34:36;;;;;;;19.83;12.77;;;21.20;13.10;;;;;;5043014;28;20490;-72
2023/07/03 06:37:05;;;;;;;18.60;12.30;;;21.40;12.30;;;;;;5042980;28;20470;-71
2023/07/03 06:39:32;;;;;;;24.37;12.17;;;21.40;11.30;;;;;;5039523;28;20830;-72
2023/07/03 06:41:59;;;;;;;17.93;11.57;;;21.50;11.20;;;;;;5038976;28;20462;-72
2023/07/03 06:44:27;;;;;;;18.73;12.47;;;21.60;11.00;;;;;;5039762;28;21155;-73
2023/07/03 06:46:54;;;;;;;19.33;12.50;;;21.60;10.60;;;;;;5041056;28;20592;-71
2023/07/03 06:49:24;;;;;;;19.03;11.30;;;21.70;10.70;;;;;;5040293;28;20466;-73
2023/07/03 06:51:51;;;;;;;22.40;11.97;;;21.80;10.40;;;;;;5045565;28;21009;-70
2023/07/03 06:54:18;;;;;;;21.80;11.50;;;22.00;10.10;;;;;;5046061;28;20482;-72
2023/07/03 06:56:44;;;;;;;19.27;11.87;;;22.40;9.60;;;;;;5037979;28;20985;-73
2023/07/03 06:59:11;;;;;;;17.37;10.90;;;22.70;9.10;;;;;;5042239;28;20469;-75
2023/07/03 07:01:39;;;;;;;18.60;10.70;;;22.80;8.70;;;;;;5040606;28;20552;-72
2023/07/03 07:04:06;;;;;;;21.00;12.10;;;23.00;8.20;;;;;;5043407;28;20484;-73
2023/07/03 07:06:34;;;;;;;19.83;11.83;;;23.00;7.70;;;;;;5043944;28;20474;-71
2023/07/03 07:09:03;;;;;;;22.77;11.67;;;23.10;7.10;;;;;;5043987;28;20466;-73
2023/07/03 07:11:31;;;;;;;20.00;11.47;;;23.10;7.10;;;;;;5045464;28;20461;-73
2023/07/03 07:14:00;;;;;;;19.87;11.40;;;23.30;7.20;;;;;;5042315;28;20522;-72
2023/07/03 07:16:28;;;;;;;18.30;12.20;;;23.70;6.80;;;;;;5047257;28;20466;-72
2023/07/03 07:18:57;;;;;;;15.57;9.73;;;23.90;6.20;;;;;;5049892;28;20474;-71
2023/07/03 07:21:24;;;;;;;19.80;10.60;;;24.00;5.60;;;;;;5046977;28;20465;-73
2023/07/03 07:23:54;;;;;;;20.33;10.97;;;24.00;5.20;;;;;;5046316;28;20853;-72
2023/07/03 07:26:22;;;;;;;15.77;9.10;;;24.10;4.80;;;;;;5045104;28;20482;-73
2023/07/03 07:28:49;;;;;;;16.60;9.87;;;24.30;5.00;;;;;;5046758;28;20473;-72
2023/07/03 07:31:20;;;;;;;18.93;9.60;;;24.90;4.00;;;;;;5043246;28;20470;-72
2023/07/03 07:33:46;;;;;;;15.87;10.50;;;25.20;3.50;;;;;;5046053;28;20845;-72
2023/07/03 07:36:13;;;;;;;17.17;10.27;;;25.40;3.40;;;;;;5042378;28;20462;-74
2023/07/03 07:38:40;;;;;;;16.40;9.97;;;25.60;2.50;;;;;;5046945;28;20493;-72
2023/07/03 07:41:08;;;;;;;12.40;9.00;;;25.90;1.90;;;;;;5046673;28;20465;-70
2023/07/03 07:43:36;;;;;;;15.30;10.10;;;27.20;1.00;;;;;;5047434;28;20855;-71
2023/07/03 07:46:03;;;;;;;15.97;8.83;;;27.90;1.00;;;;;;5049659;28;20564;-70
2023/07/03 07:48:30;;;;;;;14.27;9.20;;;28.10;1.00;;;;;;5048632;28;20466;-71
2023/07/03 07:50:56;;;;;;;17.70;9.87;;;28.10;1.00;;;;;;5045509;28;20965;-71
2023/07/03 07:53:23;;;;;;;20.70;9.90;;;28.00;1.00;;;;;;5047582;28;21184;-70
2023/07/03 07:55:50;;;;;;;14.37;8.80;;;28.30;1.00;;;;;;5047258;28;20457;-70
2023/07/03 07:58:18;;;;;;;15.80;9.20;;;29.40;1.00;;;;;;5045696;28;20498;-70
2023/07/03 08:00:45;;;;;;;17.63;9.20;;;30.90;1.00;;;;;;5040472;28;20474;-72
2023/07/03 08:03:11;;;;;;;16.30;8.33;;;31.70;1.00;;;;;;5045751;28;20825;-72
2023/07/03 08:05:38;;;;;;;13.17;8.33;;;33.40;1.00;;;;;;5042711;28;20967;-71
2023/07/03 08:08:05;;;;;;;11.03;7.73;;;34.30;1.00;;;;;;5049362;28;20485;-71
2023/07/03 08:10:32;;;;;;;11.67;8.40;;;37.30;1.00;;;;;;5046080;28;20524;-72
2023/07/03 08:13:00;;;;;;;12.63;7.60;;;40.10;1.00;;;;;;5042857;28;20521;-71
2023/07/03 08:15:28;;;;;;;12.23;8.30;;;42.30;1.00;;;;;;5041535;28;20459;-72
2023/07/03 08:17:55;;;;;;;10.63;7.33;;;44.40;1.00;;;;;;5045070;28;20461;-73
2023/07/03 08:20:22;;;;;;;11.13;7.17;;;45.90;1.00;;;;;;5045657;28;20476;-73
2023/07/03 08:22:49;;;;;;;10.53;6.60;;;46.70;1.00;;;;;;5043681;28;20458;-73
2023/07/03 08:25:16;;;;;;;10.20;6.87;;;46.70;1.00;;;;;;5048220;28;20942;-73
2023/07/03 08:27:47;;;;;;;11.33;7.00;;;47.60;1.00;;;;;;5046157;28;20521;-72
2023/07/03 08:30:14;;;;;;;10.60;7.23;;;46.90;1.00;;;;;;5042043;28;20466;-72
2023/07/03 08:32:43;;;;;;;11.20;7.00;;;46.10;1.00;;;;;;5045092;28;20472;-73
2023/07/03 08:35:10;;;;;;;13.47;8.27;;;47.00;1.00;;;;;;5043841;28;20511;-72
2023/07/03 08:37:36;;;;;;;11.20;6.90;;;48.20;1.00;;;;;;5046617;28;20485;-72
2023/07/03 08:40:05;;;;;;;9.43;6.40;;;48.80;1.00;;;;;;5045092;28;21193;-73
2023/07/03 08:42:36;;;;;;;11.60;7.43;;;48.60;1.00;;;;;;5040494;28;20493;-73
2023/07/03 08:45:06;;;;;;;10.00;7.43;;;49.10;1.00;;;;;;5037803;28;20525;-75
2023/07/03 08:47:35;;;;;;;9.83;7.10;;;48.60;1.00;;;;;;5045682;28;20454;-74
2023/07/03 08:50:04;;;;;;;11.10;7.00;;;49.20;1.00;;;;;;5044522;28;20469;-73
2023/07/03 08:52:36;;;;;;;13.10;7.03;;;49.70;1.00;;;;;;5041593;28;20938;-71
2023/07/03 08:55:07;;;;;;;10.53;6.67;;;50.40;1.00;;;;;;5046481;28;20869;-75
2023/07/03 08:57:36;;;;;;;10.07;7.47;;;50.50;1.00;;;;;;5048374;28;20500;-75
2023/07/03 09:00:05;;;;;;;10.90;6.67;;;51.00;1.00;;;;;;5047276;28;20474;-73
2023/07/03 09:02:41;;;;;;;10.73;7.70;;;51.20;1.00;;;;;;5045118;28;20485;-74
2023/07/03 09:05:25;;;;;;;10.60;7.40;;;51.60;1.00;;;;;;5044586;28;20464;-73
2023/07/03 09:07:56;;;;;;;10.10;7.77;;;49.70;1.00;;;;;;5044735;28;20469;-73
2023/07/03 09:10:27;;;;;;;12.70;6.90;;;47.60;1.00;;;;;;5045364;28;20988;-73
2023/07/03 09:13:00;;;;;;;13.50;7.30;;;45.10;1.00;;;;;;5045679;28;20508;-73
2023/07/03 09:15:31;;;;;;;11.40;8.20;;;42.50;1.00;;;;;;5046103;28;20458;-73
2023/07/03 09:18:00;;;;;;;9.53;7.20;;;40.40;1.00;;;;;;5047280;28;20997;-72
2023/07/03 09:20:30;;;;;;;12.60;7.70;;;38.70;1.00;;;;;;5045223;28;20466;-72
2023/07/03 09:23:03;;;;;;;11.50;7.37;;;37.30;1.00;;;;;;5044888;28;20973;-72
2023/07/03 09:25:35;;;;;;;13.37;7.43;;;37.40;1.00;;;;;;5044525;28;20575;-72
2023/07/03 09:28:03;;;;;;;13.80;7.87;;;36.50;1.00;;;;;;5042394;28;20465;-72
2023/07/03 09:30:30;;;;;;;11.50;8.20;;;35.80;1.00;;;;;;5043677;28;20470;-72
2023/07/03 09:32:57;;;;;;;12.43;7.03;;;35.30;1.00;;;;;;5045234;28;20489;-73
2023/07/03 09:35:25;;;;;;;15.10;7.33;;;34.60;1.00;;;;;;5045393;28;20470;-73
2023/07/03 09:38:01;;;;;;;13.00;8.10;;;34.40;1.00;;;;;;5046150;28;20482;-72
2023/07/03 09:40:30;;;;;;;10.13;7.60;;;34.40;1.00;;;;;;5045381;28;20523;-73
2023/07/03 09:42:56;;;;;;;11.27;7.33;;;34.00;1.00;;;;;;5048202;28;20961;-73
2023/07/03 09:45:29;;;;;;;12.80;8.00;;;33.70;1.00;;;;;;5045603;28;20474;-73
2023/07/03 09:47:58;;;;;;;13.27;8.00;;;33.40;1.00;;;;;;5044388;28;20458;-74
2023/07/03 09:50:28;;;;;;;11.87;7.73;;;32.90;1.00;;;;;;5043923;28;20466;-73
2023/07/03 09:52:57;;;;;;;15.77;7.63;;;32.40;1.00;;;;;;5046821;28;20842;-72
2023/07/03 09:55:26;;;;;;;14.23;7.97;;;32.00;1.00;;;;;;5040081;28;20463;-73
2023/07/03 09:57:52;;;;;;;11.40;7.30;;;31.70;1.00;;;;;;5043350;28;20493;-72
2023/07/03 10:00:22;;;;;;;14.60;8.20;;;31.30;1.00;;;;;;5043698;28;20462;-73
2023/07/03 10:02:52;;;;;;;12.80;7.37;;;30.90;1.00;;;;;;5040194;28;20477;-72
2023/07/03 10:05:29;;;;;;;14.47;8.10;;;30.60;1.00;;;;;;5036790;28;20466;-76
2023/07/03 10:08:01;;;;;;;13.23;7.93;;;30.40;1.00;;;;;;5037947;28;20466;-76
2023/07/03 10:10:32;;;;;;;11.50;7.30;;;30.30;1.00;;;;;;5042603;28;20958;-74
2023/07/03 10:13:05;;;;;;;15.80;6.90;;;30.30;1.00;;;;;;5041675;28;20488;-74
2023/07/03 10:15:37;;;;;;;11.63;7.33;;;30.20;1.00;;;;;;5039218;28;20893;-76
2023/07/03 10:18:10;;;;;;;11.77;7.13;;;30.10;1.00;;;;;;5048340;28;20474;-75
2023/07/03 10:20:41;;;;;;;13.43;6.10;;;29.80;1.00;;;;;;5047903;28;20457;-74
2023/07/03 10:23:13;;;;;;;9.37;5.80;;;29.50;1.00;;;;;;5048511;28;20482;-76
2023/07/03 10:25:43;;;;;;;11.40;6.53;;;29.10;1.00;;;;;;5046605;28;20465;-74
2023/07/03 10:28:15;;;;;;;13.30;6.23;;;28.60;1.00;;;;;;5042266;28;20469;-73
2023/07/03 10:30:43;;;;;;;14.50;7.00;;;28.30;1.00;;;;;;5046074;28;20466;-73
2023/07/03 10:33:15;;;;;;;12.03;5.63;;;28.10;1.00;;;;;;5043353;28;20506;-73
2023/07/03 10:35:44;;;;;;;13.17;5.80;;;27.80;1.00;;;;;;5044909;28;20458;-74
2023/07/03 10:38:23;;;;;;;13.90;6.97;;;27.50;1.00;;;;;;5044596;28;21190;-72
2023/07/03 10:40:57;;;;;;;11.40;5.90;;;27.30;1.00;;;;;;5041232;28;20509;-73
2023/07/03 10:43:28;;;;;;;15.90;6.97;;;27.00;1.00;;;;;;5043635;28;20484;-72
2023/07/03 10:45:56;;;;;;;16.43;6.93;;;26.70;1.00;;;;;;5043200;28;20470;-72
2023/07/03 10:48:25;;;;;;;15.30;6.67;;;26.50;1.00;;;;;;5042137;28;21136;-72
2023/07/03 10:51:04;;;;;;;14.90;6.57;;;26.30;1.00;;;;;;5043531;28;20806;-73
2023/07/03 10:53:41;;;;;;;12.70;6.50;;;26.20;1.00;;;;;;5040848;28;20849;-73
2023/07/03 10:56:12;;;;;;;14.70;7.10;;;26.20;1.00;;;;;;5045787;28;20461;-72
2023/07/03 10:58:43;;;;;;;12.73;5.97;;;26.20;1.00;;;;;;5043080;28;20477;-73
2023/07/03 11:01:18;;;;;;;10.83;6.00;;;26.30;1.00;;;;;;5041688;28;20557;-73
2023/07/03 11:03:52;;;;;;;14.60;6.57;;;26.30;1.00;;;;;;5041848;28;20485;-74
2023/07/03 11:06:26;;;;;;;10.80;6.43;;;26.30;1.00;;;;;;5043790;28;20824;-73
2023/07/03 11:08:59;;;;;;;14.97;6.90;;;26.30;1.00;;;;;;5043531;28;20486;-72
2023/07/03 11:11:36;;;;;;;15.30;7.07;;;26.20;1.00;;;;;;5045342;28;20462;-74
2023/07/03 11:14:11;;;;;;;12.57;6.73;;;26.10;1.00;;;;;;5043477;28;20485;-73
2023/07/03 11:16:48;;;;;;;15.67;7.17;;;26.10;1.00;;;;;;5039824;28;20992;-73
2023/07/03 11:19:22;;;;;;;15.00;7.03;;;26.10;1.00;;;;;;5042341;28;20458;-74
2023/07/03 11:21:58;;;;;;;11.50;6.30;;;26.30;1.00;;;;;;5043237;28;20839;-73
2023/07/03 11:24:31;;;;;;;11.23;6.37;;;26.50;1.00;;;;;;5045424;28;20485;-74
2023/07/03 11:27:04;;;;;;;11.00;6.33;;;26.60;1.00;;;;;;5043707;28;20477;-73
2023/07/03 11:29:31;;;;;;;11.03;5.80;;;26.70;1.00;;;;;;5041809;28;20469;-73
2023/07/03 11:31:59;;;;;;;15.80;6.83;;;27.00;1.00;;;;;;5045972;28;20477;-73
2023/07/03 11:34:27;;;;;;;15.20;7.60;;;27.20;1.00;;;;;;5042822;28;20485;-73
2023/07/03 11:36:55;;;;;;;13.10;5.80;;;27.50;1.00;;;;;;5045021;28;20481;-73
2023/07/03 11:39:24;;;;;;;11.03;6.30;;;27.60;1.00;;;;;;5036798;28;20466;-72
2023/07/03 11:41:55;;;;;;;15.17;7.30;;;27.60;1.00;;;;;;5039961;28;21276;-72
2023/07/03 11:44:31;;;;;;;11.90;5.90;;;27.80;1.00;;;;;;5037953;28;20488;-71
2023/07/03 11:47:01;;;;;;;11.70;6.43;;;27.90;1.00;;;;;;5066520;23;20524;-65
2023/07/03 11:49:31;;;;;;;11.07;6.13;;;27.80;1.00;;;;;;5064143;28;20460;-66
2023/07/03 11:52:01;;;;;;;12.20;6.27;;;27.90;1.00;;;;;;5058689;28;20965;-65
2023/07/03 11:54:30;;;;;;;11.67;6.30;;;27.80;1.00;;;;;;5063891;28;20489;-66
2023/07/03 11:57:02;;;;;;;13.60;6.93;;;27.70;1.00;;;;;;5066085;28;20487;-66
2023/07/03 11:59:37;;;;;;;14.40;6.60;;;27.70;1.00;;;;;;5062058;28;20457;-66
2023/07/03 12:02:46;;;;;;;15.43;7.07;;;27.70;1.00;;;;;;5068355;28;20480;-65
2023/07/03 12:05:52;;;;;;;12.53;6.17;;;27.80;1.00;;;;;;5066157;28;20746;-65
2023/07/03 12:08:52;;;;;;;12.20;5.93;;;27.70;1.00;;;;;;5065723;28;20449;-67
2023/07/03 12:11:24;;;;;;;14.47;6.93;;;27.70;1.00;;;;;;5018795;28;20468;-68
2023/07/03 12:13:55;;;;;;;10.70;5.97;;;27.70;1.00;;;;;;5022828;28;21052;-68
2023/07/03 12:16:31;;;;;;;11.23;6.23;;;27.70;1.00;;;;;;5040424;28;20460;-68
2023/07/03 12:19:06;;;;;;;13.10;6.37;;;27.70;1.00;;;;;;5057549;28;20579;-67
2023/07/03 12:21:35;;;;;;;12.27;6.13;;;27.60;1.00;;;;;;5066079;28;20457;-68
2023/07/03 12:24:02;;;;;;;12.97;6.87;;;27.60;1.00;;;;;;5069304;28;20545;-67
2023/07/03 12:26:29;;;;;;;15.10;8.00;;;27.70;1.00;;;;;;5070330;28;20457;-67
2023/07/03 12:29:04;;;;;;;13.17;6.03;;;27.50;1.00;;;;;;5070470;28;20465;-67
2023/07/03 12:31:31;;;;;;;14.00;6.17;;;27.40;1.00;;;;;;5069018;28;20537;-68
2023/07/03 12:34:00;;;;;;;11.20;6.70;;;27.40;1.00;;;;;;5065035;28;20503;-68
2023/07/03 12:36:29;;;;;;;15.97;6.93;;;27.30;1.00;;;;;;5066089;28;20465;-68
2023/07/03 12:38:57;;;;;;;13.40;6.20;;;27.10;1.00;;;;;;5067111;28;21161;-68
2023/07/03 12:41:27;;;;;;;12.73;5.63;;;27.10;1.00;;;;;;5069220;28;20475;-67
2023/07/03 12:43:54;;;;;;;13.37;6.80;;;27.10;1.00;;;;;;5067564;28;20567;-68
2023/07/03 12:46:34;;;;;;;11.03;5.70;;;27.10;1.00;;;;;;5065912;28;20458;-68